Time;durP1;ratioP1;P1;durP2;ratioP2;P2;SDS_P1;SDS_P2;PMS_P1;PMS_P2;Temp;Humidity;BMP_temperature;BMP_pressure;BME280_temperature;BME280_humidity;BME280_pressure;Samples;Min_cycle;Max_cycle;Signal;HPM_P1;HPM_P2
2022/04/01 00:01:18;;;;;;;21.33;8.15;;;;;;;12.34;84.26;98311.69;5044224;28;20040;-70
2022/04/01 00:03:43;;;;;;;20.35;6.68;;;;;;;12.32;83.87;98286.66;5050064;28;20042;-70
2022/04/01 00:06:08;;;;;;;25.23;8.20;;;;;;;12.23;83.57;98272.53;5050191;28;20605;-71
2022/04/01 00:08:34;;;;;;;37.65;7.80;;;;;;;12.37;83.28;98304.28;5050384;28;20033;-71
2022/04/01 00:10:59;;;;;;;22.08;7.38;;;;;;;12.26;83.44;98295.72;5050260;28;20025;-71
2022/04/01 00:13:25;;;;;;;15.25;6.40;;;;;;;12.26;83.33;98304.44;5048949;28;20036;-71
2022/04/01 00:15:50;;;;;;;23.83;7.05;;;;;;;12.36;83.85;98314.06;5050130;28;20070;-69
2022/04/01 00:18:16;;;;;;;23.33;7.00;;;;;;;12.21;83.59;98290.50;5050501;28;20032;-70
2022/04/01 00:20:41;;;;;;;29.50;6.88;;;;;;;12.30;83.74;98304.63;5065395;28;20032;-70
2022/04/01 00:23:07;;;;;;;21.83;7.53;;;;;;;12.23;83.74;98293.66;5049861;28;20439;-71
2022/04/01 00:25:33;;;;;;;29.50;8.32;;;;;;;12.30;83.42;98300.13;5048671;28;20043;-69
2022/04/01 00:27:58;;;;;;;24.15;7.20;;;;;;;12.23;83.37;98288.38;5050016;28;20490;-70
2022/04/01 00:30:23;;;;;;;24.52;8.13;;;;;;;12.27;83.71;98300.72;5048597;28;20183;-69
2022/04/01 00:32:49;;;;;;;23.90;6.97;;;;;;;12.21;83.68;98286.03;5049494;28;20059;-70
2022/04/01 00:35:15;;;;;;;26.75;7.60;;;;;;;12.24;83.78;98285.47;5052741;28;20037;-69
2022/04/01 00:37:40;;;;;;;18.42;7.15;;;;;;;12.23;83.64;98280.47;5044561;28;20037;-70
2022/04/01 00:40:06;;;;;;;23.73;7.57;;;;;;;12.30;83.32;98294.06;5055131;28;20025;-69
2022/04/01 00:42:32;;;;;;;22.02;8.10;;;;;;;12.28;83.47;98290.94;5055634;28;20041;-71
2022/04/01 00:44:58;;;;;;;19.75;7.32;;;;;;;12.28;83.50;98281.19;5055973;28;20063;-72
2022/04/01 00:47:24;;;;;;;27.13;7.78;;;;;;;12.22;83.67;98281.53;5055396;28;20080;-71
2022/04/01 00:49:49;;;;;;;23.83;6.95;;;;;;;12.30;83.45;98292.22;5056049;28;20078;-71
2022/04/01 00:52:17;;;;;;;21.67;7.93;;;;;;;12.19;83.18;98271.56;5054888;28;20037;-71
2022/04/01 00:54:44;;;;;;;20.83;7.45;;;;;;;12.31;83.19;98285.09;5049666;28;20086;-71
2022/04/01 00:57:12;;;;;;;29.35;7.95;;;;;;;12.27;83.45;98292.78;5049603;28;20626;-71
2022/04/01 00:59:37;;;;;;;30.48;7.72;;;;;;;12.19;83.16;98277.63;5048019;28;20052;-69
2022/04/01 01:02:03;;;;;;;22.40;7.82;;;;;;;12.26;83.44;98293.88;5049709;28;20028;-71
2022/04/01 01:04:29;;;;;;;29.00;7.07;;;;;;;12.27;83.63;98292.00;5049742;28;20072;-71
2022/04/01 01:07:00;;;;;;;25.27;8.27;;;;;;;12.26;83.64;98296.50;5048325;28;20041;-70
2022/04/01 01:09:26;;;;;;;26.02;8.00;;;;;;;12.22;83.68;98295.50;5042944;28;20525;-72
2022/04/01 01:11:53;;;;;;;22.33;7.10;;;;;;;12.16;83.50;98282.69;5048142;28;20041;-71
2022/04/01 01:14:40;;;;;;;27.63;8.48;;;;;;;11.96;83.60;98242.34;5047716;28;20033;-70
2022/04/01 01:17:10;;;;;;;21.95;7.05;;;;;;;12.21;83.78;98282.59;5047487;28;20033;-70
2022/04/01 01:19:36;;;;;;;25.50;7.60;;;;;;;12.18;83.71;98275.25;5053075;28;20036;-70
2022/04/01 01:22:02;;;;;;;19.40;7.68;;;;;;;12.15;83.78;98273.22;5053699;28;20039;-70
2022/04/01 01:24:31;;;;;;;23.40;7.13;;;;;;;12.22;83.75;98281.53;5047826;28;20037;-71
2022/04/01 01:26:57;;;;;;;;;;;;;;;12.22;83.85;98284.19;5067988;28;20044;-70
2022/04/01 01:29:29;;;;;;;27.92;7.65;;;;;;;12.15;84.09;98270.56;5053006;28;19912;-72
2022/04/01 01:32:00;;;;;;;23.60;7.25;;;;;;;12.20;83.78;98273.13;5053659;28;20127;-72
2022/04/01 01:34:27;;;;;;;20.70;7.28;;;;;;;12.20;83.79;98275.75;5053051;28;20057;-72
2022/04/01 01:36:53;;;;;;;28.55;7.18;;;;;;;12.19;83.95;98269.72;5058274;28;20048;-72
2022/04/01 01:39:20;;;;;;;23.27;7.38;;;;;;;12.11;83.73;98265.88;5052703;28;20060;-72
2022/04/01 01:41:47;;;;;;;25.35;7.57;;;;;;;11.87;83.91;98225.59;5053284;28;20467;-70
2022/04/01 01:44:14;;;;;;;24.10;6.88;;;;;;;12.17;83.99;98269.22;5051337;28;20052;-69
2022/04/01 01:46:40;;;;;;;16.42;5.95;;;;;;;12.17;83.65;98277.13;5053140;28;20036;-71
2022/04/01 01:49:06;;;;;;;22.95;6.90;;;;;;;12.10;83.61;98259.00;5053079;28;20033;-70
2022/04/01 01:57:00;;;;;;;24.50;6.72;;;;;;;12.20;83.39;98262.56;5053055;28;20521;-71
2022/04/01 01:59:26;;;;;;;21.33;7.47;;;;;;;12.19;83.42;98255.75;5052200;28;20049;-72
2022/04/01 02:01:52;;;;;;;25.95;6.63;;;;;;;12.23;82.94;98260.13;5053504;28;20037;-72
2022/04/01 02:04:18;;;;;;;20.27;6.20;;;;;;;12.18;82.97;98239.09;5052305;28;20039;-71
2022/04/01 02:06:44;;;;;;;25.65;6.75;;;;;;;12.25;82.98;98250.06;5053083;28;20119;-71
2022/04/01 02:09:09;;;;;;;23.98;5.90;;;;;;;12.20;82.85;98233.53;5052542;28;20036;-70
2022/04/01 02:11:37;;;;;;;18.83;6.85;;;;;;;12.23;82.58;98232.97;5052938;28;20572;-70
2022/04/01 02:14:03;;;;;;;25.98;5.97;;;;;;;12.21;82.96;98232.47;5051274;28;20119;-71
2022/04/01 02:16:29;;;;;;;16.80;6.40;;;;;;;12.28;82.56;98240.78;5051306;28;20033;-72
2022/04/01 02:18:54;;;;;;;17.60;5.65;;;;;;;12.29;82.67;98239.75;5050911;28;20044;-69
2022/04/01 02:21:20;;;;;;;21.58;5.97;;;;;;;12.33;82.47;98251.25;5034234;28;20033;-71
2022/04/01 02:23:47;;;;;;;20.85;5.32;;;;;;;12.37;82.49;98262.81;5067916;28;20036;-70
2022/04/01 02:26:13;;;;;;;17.42;5.20;;;;;;;12.30;82.48;98251.84;5052170;28;20119;-71
2022/04/01 02:28:40;;;;;;;21.58;6.13;;;;;;;12.10;82.44;98216.03;5067145;28;20383;-71
2022/04/01 02:31:07;;;;;;;20.55;6.10;;;;;;;12.32;82.65;98250.47;5052237;28;20126;-70
2022/04/01 02:33:34;;;;;;;17.85;5.80;;;;;;;12.35;82.86;98257.03;5050622;28;20550;-70
2022/04/01 02:36:02;;;;;;;19.00;5.47;;;;;;;12.33;82.99;98252.06;5051953;28;20119;-70
2022/04/01 02:38:29;;;;;;;12.82;4.68;;;;;;;12.35;82.91;98259.69;5067263;28;20040;-71
2022/04/01 02:40:56;;;;;;;23.15;5.57;;;;;;;12.26;82.85;98235.81;5066861;28;20048;-70
2022/04/01 02:43:22;;;;;;;14.07;4.65;;;;;;;12.39;83.15;98249.34;5051788;28;20072;-70
2022/04/01 02:45:48;;;;;;;14.93;5.13;;;;;;;12.36;82.91;98234.09;5054687;28;20060;-71
2022/04/01 02:48:19;;;;;;;19.73;5.63;;;;;;;12.37;83.11;98231.16;5052191;28;20423;-71
2022/04/01 02:50:47;;;;;;;13.02;5.13;;;;;;;12.34;83.29;98221.19;5051187;28;20838;-71
2022/04/01 02:53:14;;;;;;;15.35;5.15;;;;;;;12.39;82.90;98231.66;5052273;28;20037;-72
2022/04/01 02:55:40;;;;;;;18.10;5.15;;;;;;;12.36;82.70;98213.75;5063037;28;20546;-71
2022/04/01 02:58:06;;;;;;;19.90;5.50;;;;;;;12.35;82.78;98212.19;5032106;28;20025;-72
2022/04/01 03:00:37;;;;;;;18.40;5.78;;;;;;;12.47;82.53;98227.56;5038384;28;20065;-72
2022/04/01 03:03:06;;;;;;;26.70;5.90;;;;;;;12.51;82.73;98224.03;5051805;28;20056;-71
2022/04/01 03:05:44;;;;;;;19.77;5.65;;;;;;;12.35;82.60;98193.69;5044670;28;20541;-70
2022/04/01 03:08:10;;;;;;;17.08;4.22;;;;;;;12.30;82.40;98165.53;5051870;28;20474;-71
2022/04/01 03:10:38;;;;;;;15.55;5.15;;;;;;;12.59;82.07;98200.69;5051207;28;20086;-70
2022/04/01 03:13:07;;;;;;;17.95;4.53;;;;;;;12.56;82.27;98194.91;5050057;28;20037;-71
2022/04/01 03:15:33;;;;;;;12.70;4.32;;;;;;;12.55;82.29;98185.44;5051300;28;20041;-70
2022/04/01 03:17:58;;;;;;;12.93;4.20;;;;;;;12.66;81.98;98193.16;5051362;28;20374;-71
2022/04/01 03:20:24;;;;;;;15.20;4.20;;;;;;;12.52;82.30;98164.91;5049540;28;20041;-69
2022/04/01 03:22:50;;;;;;;15.15;4.07;;;;;;;12.63;82.99;98185.84;5051344;28;20055;-68
2022/04/01 03:25:20;;;;;;;13.82;4.40;;;;;;;12.69;82.99;98201.28;5047864;28;20048;-68
2022/04/01 03:27:47;;;;;;;13.57;4.20;;;;;;;12.68;82.88;98194.44;5050971;28;20041;-69
2022/04/01 03:30:13;;;;;;;13.30;4.50;;;;;;;12.67;83.09;98208.72;5046426;28;20029;-72
2022/04/01 03:32:40;;;;;;;11.32;4.40;;;;;;;12.62;83.11;98202.72;5048396;28;20025;-69
2022/04/01 03:35:08;;;;;;;16.50;4.90;;;;;;;12.60;83.25;98203.03;5050994;28;20033;-69
2022/04/01 03:37:34;;;;;;;16.00;4.40;;;;;;;12.62;82.98;98213.28;5050558;28;20033;-69
2022/04/01 03:40:00;;;;;;;17.00;4.90;;;;;;;12.55;83.44;98200.50;5044483;28;20495;-69
2022/04/01 03:42:31;;;;;;;12.30;4.20;;;;;;;12.61;83.59;98220.44;5044114;28;20343;-69
2022/04/01 03:45:03;;;;;;;16.40;4.20;;;;;;;12.60;83.66;98221.53;5033652;28;20037;-70
2022/04/01 03:47:49;;;;;;;17.00;5.45;;;;;;;12.58;83.76;98210.47;5054817;28;20025;-69
2022/04/01 03:50:17;;;;;;;12.55;4.20;;;;;;;12.55;84.04;98209.19;5051055;28;20041;-69
2022/04/01 03:52:45;;;;;;;10.98;4.32;;;;;;;12.54;84.35;98198.91;5045616;28;20030;-69
2022/04/01 03:55:11;;;;;;;19.35;4.53;;;;;;;12.37;84.32;98188.91;5031195;28;20121;-68
2022/04/01 03:57:39;;;;;;;13.55;4.70;;;;;;;12.53;84.49;98216.63;5043261;28;20049;-69
2022/04/01 04:00:12;;;;;;;14.10;3.75;;;;;;;12.47;84.34;98201.94;5049066;28;20060;-69
2022/04/01 04:02:40;;;;;;;12.73;3.90;;;;;;;12.44;83.99;98204.38;5048460;28;20045;-69
2022/04/01 04:05:08;;;;;;;12.43;4.10;;;;;;;12.43;83.86;98192.28;5050546;28;20071;-68
2022/04/01 04:07:34;;;;;;;14.50;4.13;;;;;;;12.53;83.41;98211.34;5051191;28;20033;-68
2022/04/01 04:09:59;;;;;;;11.70;3.85;;;;;;;12.52;83.27;98201.06;5055438;28;20375;-69
2022/04/01 04:12:27;;;;;;;11.93;4.18;;;;;;;12.56;83.02;98197.53;5054744;28;20060;-69
2022/04/01 04:14:53;;;;;;;14.05;5.05;;;;;;;12.61;82.99;98201.19;5049141;28;20040;-69
2022/04/01 04:17:44;;;;;;;16.02;4.60;;;;;;;12.63;82.30;98197.16;5050291;28;20491;-71
2022/04/01 04:20:34;;;;;;;16.77;3.92;;;;;;;12.61;82.23;98187.97;5050541;28;20467;-69
2022/04/01 04:23:29;;;;;;;20.48;4.18;;;;;;;12.67;81.70;98200.81;5050014;28;20044;-70
2022/04/01 04:26:01;;;;;;;21.10;4.60;;;;;;;12.64;81.63;98188.19;5050063;28;20086;-69
2022/04/01 04:28:31;;;;;;;16.15;4.40;;;;;;;12.63;81.12;98177.91;5048996;28;20041;-69
2022/04/01 04:31:02;;;;;;;21.85;5.25;;;;;;;12.68;80.89;98177.81;5050737;28;20025;-68
2022/04/01 04:33:31;;;;;;;8.95;4.03;;;;;;;12.75;80.33;98196.69;5045748;28;20039;-70
2022/04/01 04:36:04;;;;;;;13.73;4.10;;;;;;;12.73;80.11;98191.69;5049334;28;20127;-68
2022/04/01 04:38:35;;;;;;;13.02;4.13;;;;;;;12.80;79.65;98201.09;5050257;28;20033;-69
2022/04/01 04:41:01;;;;;;;14.25;4.60;;;;;;;12.82;79.29;98209.50;5049111;28;20124;-68
2022/04/01 04:43:28;;;;;;;18.50;4.18;;;;;;;12.76;79.10;98191.13;5046317;28;20079;-68
2022/04/01 04:45:56;;;;;;;12.73;4.18;;;;;;;12.80;78.88;98198.44;5065601;28;20041;-68
2022/04/01 04:48:23;;;;;;;17.85;4.28;;;;;;;12.80;78.15;98188.66;5050323;28;20043;-68
2022/04/01 04:50:51;;;;;;;16.27;4.85;;;;;;;12.82;78.02;98185.75;5048780;28;20147;-69
2022/04/01 04:53:19;;;;;;;10.75;4.32;;;;;;;12.93;77.75;98198.47;5036569;28;20086;-68
2022/04/01 04:55:47;;;;;;;15.75;4.50;;;;;;;12.86;78.05;98184.88;5048767;28;20045;-68
2022/04/01 04:58:14;;;;;;;15.55;4.55;;;;;;;12.83;77.77;98177.50;5049709;28;20060;-69
2022/04/01 05:00:45;;;;;;;14.77;4.38;;;;;;;12.86;77.94;98187.50;5048572;28;20045;-69
2022/04/01 05:03:48;;;;;;;15.20;4.53;;;;;;;12.91;77.95;98197.97;5049289;28;20041;-69
2022/04/01 05:06:17;;;;;;;23.63;5.03;;;;;;;12.82;78.03;98178.59;5030706;28;20045;-69
2022/04/01 05:09:00;;;;;;;17.27;5.47;;;;;;;12.91;77.77;98190.03;5035237;28;20114;-69
2022/04/01 05:11:44;;;;;;;14.55;4.20;;;;;;;12.97;77.81;98198.66;5050304;28;20029;-69
2022/04/01 05:14:19;;;;;;;16.33;4.57;;;;;;;13.02;77.75;98189.84;5049415;28;20502;-68
2022/04/01 05:17:04;;;;;;;15.95;4.25;;;;;;;13.11;77.47;98185.44;5050114;28;20048;-68
2022/04/01 05:19:36;;;;;;;14.20;4.68;;;;;;;13.08;77.22;98178.88;5049705;28;20041;-69
2022/04/01 05:22:07;;;;;;;18.25;4.93;;;;;;;13.19;77.13;98192.66;5056204;28;20037;-68
2022/04/01 05:24:37;;;;;;;17.52;5.00;;;;;;;13.20;76.75;98188.94;5049154;28;20037;-69
2022/04/01 05:27:05;;;;;;;12.15;4.28;;;;;;;13.29;76.71;98199.63;5049708;28;20509;-68
2022/04/01 05:29:36;;;;;;;19.95;4.60;;;;;;;13.18;76.77;98183.16;5047615;28;20039;-69
2022/04/01 05:32:05;;;;;;;12.20;3.92;;;;;;;13.31;76.68;98208.03;5049720;28;20656;-68
2022/04/01 05:34:40;;;;;;;14.82;4.72;;;;;;;13.32;76.80;98207.75;5046593;28;20037;-69
2022/04/01 05:37:07;;;;;;;16.30;4.88;;;;;;;13.33;77.35;98217.22;5049655;28;20036;-70
2022/04/01 05:39:35;;;;;;;16.75;4.53;;;;;;;13.33;77.17;98213.81;5048773;28;20041;-70
2022/04/01 05:42:01;;;;;;;18.67;4.80;;;;;;;13.34;77.00;98207.47;5049287;28;20029;-69
2022/04/01 05:44:27;;;;;;;18.67;4.60;;;;;;;13.36;77.03;98211.38;5051307;28;20108;-69
2022/04/01 05:46:53;;;;;;;23.90;5.97;;;;;;;13.40;77.14;98208.91;5051459;28;20033;-70
2022/04/01 05:49:21;;;;;;;19.92;4.93;;;;;;;13.41;77.11;98205.19;5049182;28;20076;-70
2022/04/01 05:51:47;;;;;;;17.15;4.65;;;;;;;13.38;77.03;98195.19;5049679;28;20040;-71
2022/04/01 05:54:15;;;;;;;17.80;6.18;;;;;;;13.38;77.31;98201.28;5049615;28;20033;-70
2022/04/01 05:56:45;;;;;;;19.65;4.60;;;;;;;13.47;77.14;98221.72;5044749;28;20040;-71
2022/04/01 05:59:11;;;;;;;;;;;;;;;13.49;77.13;98217.69;5041514;28;20556;-72
2022/04/01 06:01:55;;;;;;;15.90;5.18;;;;;;;13.51;76.93;98214.75;5047455;28;19920;-73
2022/04/01 06:04:36;;;;;;;21.88;5.65;;;;;;;13.53;77.00;98221.31;5050411;28;20039;-71
2022/04/01 06:07:09;;;;;;;18.88;5.22;;;;;;;13.24;76.99;98182.00;5052265;28;20115;-72
2022/04/01 06:10:16;;;;;;;15.32;4.68;;;;;;;13.59;76.93;98221.97;5051842;28;20027;-71
2022/04/01 06:13:03;;;;;;;23.05;5.88;;;;;;;13.48;77.01;98196.84;5038286;28;20581;-71
2022/04/01 06:16:03;;;;;;;15.30;4.40;;;;;;;13.55;77.12;98195.38;5068109;28;20548;-72
2022/04/01 06:18:41;;;;;;;;;;;;;;;13.64;77.06;98203.34;5061141;28;20036;-72
2022/04/01 06:21:13;;;;;;;18.27;5.35;;;;;;;13.63;76.83;98204.44;5046924;28;19961;-72
2022/04/01 06:24:00;;;;;;;18.35;5.47;;;;;;;13.57;76.75;98197.69;5063671;28;20044;-72
2022/04/01 06:26:28;;;;;;;17.42;5.10;;;;;;;13.63;76.90;98207.09;5046192;28;20029;-72
2022/04/01 06:28:57;;;;;;;14.77;4.78;;;;;;;13.73;76.95;98212.16;5051346;28;20082;-72
2022/04/01 06:31:25;;;;;;;23.05;5.47;;;;;;;13.75;76.66;98209.22;5052352;28;20033;-72
2022/04/01 06:34:14;;;;;;;17.02;4.80;;;;;;;13.83;76.67;98201.31;5063621;28;20117;-72
2022/04/01 06:36:46;;;;;;;18.50;5.43;;;;;;;13.87;76.63;98196.22;5026314;28;20721;-72
2022/04/01 06:39:35;;;;;;;24.25;6.22;;;;;;;13.97;76.12;98197.84;5052398;28;20037;-72
2022/04/01 06:42:01;;;;;;;25.83;5.57;;;;;;;14.00;76.92;98189.31;5047487;28;20037;-72
2022/04/01 06:44:26;;;;;;;20.55;5.05;;;;;;;14.11;75.98;98193.28;5049964;28;20404;-72
2022/04/01 06:46:52;;;;;;;24.77;5.70;;;;;;;14.13;74.59;98201.69;5044851;28;20039;-72
2022/04/01 06:49:18;;;;;;;23.08;5.63;;;;;;;14.22;74.98;98212.31;5067380;28;20108;-72
2022/04/01 06:51:44;;;;;;;28.83;5.93;;;;;;;14.25;74.30;98209.09;5050479;28;20440;-73
2022/04/01 06:54:09;;;;;;;22.92;6.00;;;;;;;14.12;74.62;98197.47;5052344;28;20039;-72
2022/04/01 06:56:35;;;;;;;26.52;5.65;;;;;;;14.12;74.51;98186.88;5051766;28;20033;-72
2022/04/01 06:59:00;;;;;;;28.20;6.00;;;;;;;14.33;74.72;98218.16;5051734;28;20040;-71
2022/04/01 07:01:26;;;;;;;18.00;5.55;;;;;;;14.39;74.43;98225.69;5051306;28;20036;-72
2022/04/01 07:03:52;;;;;;;20.27;6.32;;;;;;;14.38;75.64;98210.88;5051700;28;20025;-72
2022/04/01 07:06:20;;;;;;;20.65;5.40;;;;;;;14.52;74.65;98216.09;5051653;28;20033;-73
2022/04/01 07:08:46;;;;;;;22.35;5.57;;;;;;;14.53;74.43;98207.03;5049837;28;20037;-72
2022/04/01 07:11:11;;;;;;;28.30;5.93;;;;;;;14.57;74.11;98200.09;5051456;28;20028;-73
2022/04/01 07:13:37;;;;;;;18.80;5.75;;;;;;;14.70;72.93;98210.88;5051357;28;20045;-72
2022/04/01 07:16:03;;;;;;;31.80;6.05;;;;;;;14.68;72.58;98192.66;5051771;28;20068;-71
2022/04/01 07:18:29;;;;;;;18.27;6.00;;;;;;;14.81;73.01;98207.66;5051163;28;20067;-72
2022/04/01 07:20:54;;;;;;;31.98;6.20;;;;;;;14.92;72.25;98225.94;5066734;28;20037;-71
2022/04/01 07:23:20;;;;;;;26.60;5.60;;;;;;;14.96;71.78;98224.25;5051023;28;20028;-71
2022/04/01 07:25:45;;;;;;;25.65;6.00;;;;;;;14.97;72.29;98220.53;5051625;28;20433;-72
2022/04/01 07:28:11;;;;;;;22.77;5.95;;;;;;;15.02;71.94;98218.50;5047653;28;20123;-72
2022/04/01 07:30:37;;;;;;;25.15;5.10;;;;;;;15.12;71.41;98219.31;5049240;28;20021;-70
2022/04/01 07:33:06;;;;;;;22.58;5.90;;;;;;;15.24;71.06;98227.44;5058967;28;20045;-71
2022/04/01 07:35:31;;;;;;;25.75;5.72;;;;;;;15.24;70.51;98212.31;5057972;28;20037;-68
2022/04/01 07:37:57;;;;;;;27.98;6.28;;;;;;;15.38;70.57;98212.19;5053304;28;20043;-70
2022/04/01 07:40:24;;;;;;;30.92;6.93;;;;;;;15.41;70.83;98214.22;5059218;28;20029;-71
2022/04/01 07:42:50;;;;;;;32.00;6.15;;;;;;;15.51;70.05;98223.75;5070776;28;20048;-72
2022/04/01 07:45:16;;;;;;;18.95;5.60;;;;;;;15.53;69.28;98209.06;5040435;28;20069;-71
2022/04/01 07:47:45;;;;;;;19.63;5.45;;;;;;;15.56;68.29;98209.53;5047315;28;20087;-70
2022/04/01 07:50:12;;;;;;;24.20;5.97;;;;;;;15.59;68.56;98219.56;5058266;28;20040;-71
2022/04/01 07:52:40;;;;;;;20.42;5.47;;;;;;;15.57;67.29;98219.84;5058333;28;20037;-72
2022/04/01 07:55:07;;;;;;;30.83;6.70;;;;;;;15.58;68.66;98221.41;5048623;28;20060;-72
2022/04/01 07:57:32;;;;;;;25.85;6.38;;;;;;;15.67;68.47;98227.50;5049312;28;20033;-72
2022/04/01 07:59:58;;;;;;;27.65;7.28;;;;;;;15.70;68.07;98229.56;5063116;28;20041;-70
2022/04/01 08:02:23;;;;;;;29.75;6.07;;;;;;;15.77;68.16;98237.06;5050621;28;20025;-71
2022/04/01 08:04:48;;;;;;;51.20;6.25;;;;;;;15.72;67.05;98221.28;5050375;28;20037;-72
2022/04/01 08:07:17;;;;;;;37.88;8.85;;;;;;;15.82;66.03;98238.78;5060907;28;20041;-72
2022/04/01 08:09:44;;;;;;;32.10;6.95;;;;;;;15.87;66.03;98247.34;5040785;28;20396;-72
2022/04/01 08:12:09;;;;;;;31.35;6.85;;;;;;;15.77;66.82;98230.97;5041735;28;20479;-71
2022/04/01 08:14:37;;;;;;;29.73;7.53;;;;;;;15.84;67.20;98239.25;5048458;28;20048;-71
2022/04/01 08:17:03;;;;;;;24.48;6.20;;;;;;;15.78;67.27;98222.72;5037589;28;20110;-71
2022/04/01 08:19:29;;;;;;;31.90;7.50;;;;;;;15.72;67.52;98224.72;5050108;28;20442;-72
2022/04/01 08:21:57;;;;;;;32.60;6.97;;;;;;;15.81;67.73;98242.53;5047720;28;20044;-72
2022/04/01 08:24:24;;;;;;;28.17;7.47;;;;;;;15.73;67.34;98239.56;5048448;28;20041;-71
2022/04/01 08:26:50;;;;;;;32.72;6.35;;;;;;;15.79;67.34;98245.50;5049510;28;20589;-72
2022/04/01 08:29:16;;;;;;;32.08;6.38;;;;;;;15.71;67.66;98227.69;5065069;28;20064;-71
2022/04/01 08:31:42;;;;;;;32.53;7.97;;;;;;;15.72;68.20;98247.81;5050306;28;20586;-71
2022/04/01 08:34:07;;;;;;;27.90;6.57;;;;;;;15.67;68.20;98246.06;5049719;28;20025;-71
2022/04/01 08:36:33;;;;;;;32.28;6.40;;;;;;;15.75;67.28;98263.13;5050484;28;20095;-72
2022/04/01 08:38:58;;;;;;;30.77;6.15;;;;;;;15.72;67.28;98253.91;5049471;28;20487;-71
2022/04/01 08:41:24;;;;;;;34.75;6.78;;;;;;;15.69;67.10;98257.16;5050039;28;20426;-72
2022/04/01 08:43:51;;;;;;;28.85;6.70;;;;;;;15.62;66.94;98250.75;5049517;28;20489;-72
2022/04/01 08:46:19;;;;;;;36.88;6.88;;;;;;;15.67;67.62;98256.69;5050244;28;20025;-72
2022/04/01 08:48:45;;;;;;;41.75;7.50;;;;;;;15.54;67.55;98252.31;5048025;28;20045;-72
2022/04/01 08:51:13;;;;;;;33.10;7.28;;;;;;;15.59;68.02;98259.34;5050134;28;20025;-72
2022/04/01 08:53:43;;;;;;;28.35;6.82;;;;;;;15.51;68.19;98240.47;5049450;28;20398;-72
2022/04/01 08:56:08;;;;;;;37.38;8.38;;;;;;;15.57;68.30;98253.56;5044989;28;20040;-71
2022/04/01 08:58:35;;;;;;;26.98;6.60;;;;;;;15.12;68.13;98196.22;5029828;28;20041;-71
2022/04/01 09:01:03;;;;;;;39.97;7.68;;;;;;;15.50;67.82;98232.81;5049350;28;20106;-70
2022/04/01 09:03:29;;;;;;;44.95;8.57;;;;;;;15.55;68.11;98235.28;5049775;28;20033;-70
2022/04/01 09:05:57;;;;;;;28.52;6.70;;;;;;;15.58;67.90;98245.28;5049244;28;20036;-70
2022/04/01 09:08:35;;;;;;;37.42;8.38;;;;;;;15.38;68.01;98208.75;5049792;28;20035;-70
2022/04/01 09:11:07;;;;;;;31.42;7.55;;;;;;;15.63;68.25;98234.50;5047398;28;20083;-71
2022/04/01 09:13:50;;;;;;;37.13;7.95;;;;;;;15.68;67.35;98228.28;5049675;28;20033;-70
2022/04/01 09:16:41;;;;;;;44.83;8.65;;;;;;;15.74;66.95;98238.47;5049551;28;20048;-72
2022/04/01 09:19:09;;;;;;;33.50;8.45;;;;;;;15.78;67.17;98228.03;5028410;28;20069;-70
2022/04/01 09:21:41;;;;;;;34.58;7.07;;;;;;;15.79;67.06;98236.75;5037450;28;20041;-72
2022/04/01 09:24:09;;;;;;;38.90;8.02;;;;;;;15.98;66.67;98242.53;5045306;28;20391;-71
2022/04/01 09:26:40;;;;;;;33.30;7.30;;;;;;;15.98;67.38;98231.13;5047260;28;20514;-71
2022/04/01 09:29:11;;;;;;;45.53;8.35;;;;;;;16.11;67.82;98233.63;5031755;28;20114;-71
2022/04/01 09:31:39;;;;;;;39.20;7.93;;;;;;;16.22;67.82;98235.94;5047724;28;20045;-72
2022/04/01 09:34:06;;;;;;;42.78;7.85;;;;;;;16.36;65.73;98226.69;5049433;28;20136;-72
2022/04/01 09:36:33;;;;;;;38.72;7.18;;;;;;;16.46;65.60;98232.78;5048894;28;20187;-72
2022/04/01 09:39:08;;;;;;;34.33;6.55;;;;;;;16.54;65.27;98232.75;5053243;28;20039;-72
2022/04/01 09:41:49;;;;;;;44.35;7.80;;;;;;;16.64;63.89;98223.66;5052958;28;20110;-73
2022/04/01 09:44:23;;;;;;;43.38;7.97;;;;;;;16.69;63.39;98226.13;5053476;28;20045;-73
2022/04/01 09:46:56;;;;;;;46.33;7.90;;;;;;;16.72;63.78;98238.78;5052593;28;20032;-73
2022/04/01 09:49:36;;;;;;;49.95;8.60;;;;;;;16.71;62.69;98231.13;5053046;28;20032;-72
2022/04/01 09:52:14;;;;;;;43.08;7.60;;;;;;;16.75;62.68;98235.47;5050917;28;20043;-72
2022/04/01 09:54:47;;;;;;;45.75;7.70;;;;;;;16.71;62.43;98226.59;5054751;28;20033;-71
2022/04/01 09:57:18;;;;;;;31.52;7.45;;;;;;;16.74;62.46;98220.66;5051578;28;20041;-73
2022/04/01 09:59:45;;;;;;;27.13;6.15;;;;;;;16.87;61.73;98226.09;5033006;28;20044;-73
2022/04/01 10:02:10;;;;;;;38.05;6.25;;;;;;;16.87;61.34;98224.22;5059021;28;20111;-71
2022/04/01 10:04:36;;;;;;;35.72;7.22;;;;;;;16.93;61.86;98220.28;5032656;28;20033;-71
2022/04/01 10:07:03;;;;;;;38.35;7.40;;;;;;;16.84;61.89;98194.84;5047331;28;20376;-71
2022/04/01 10:09:30;;;;;;;36.50;6.53;;;;;;;17.15;61.28;98213.91;5068002;28;20043;-71
2022/04/01 10:11:58;;;;;;;36.67;7.43;;;;;;;17.25;60.98;98212.75;5050895;28;20552;-70
2022/04/01 10:14:26;;;;;;;36.25;6.65;;;;;;;17.46;60.77;98228.75;5051236;28;20029;-72
2022/04/01 10:16:54;;;;;;;48.63;7.57;;;;;;;17.56;61.03;98217.72;5052449;28;20495;-72
2022/04/01 10:19:24;;;;;;;37.45;7.10;;;;;;;17.60;59.74;98202.66;5047752;28;20087;-71
2022/04/01 10:21:51;;;;;;;36.38;6.43;;;;;;;17.76;59.95;98208.16;5050850;28;20037;-72
2022/04/01 10:24:42;;;;;;;46.92;8.15;;;;;;;17.88;59.21;98210.13;5052838;28;20063;-71
2022/04/01 10:27:23;;;;;;;39.88;8.70;;;;;;;17.97;59.72;98224.16;5029112;28;20144;-72
2022/04/01 10:29:49;;;;;;;39.58;7.85;;;;;;;18.12;60.12;98230.75;5030023;28;20025;-71
2022/04/01 10:32:28;;;;;;;39.50;7.55;;;;;;;18.15;58.98;98216.78;5029267;28;20037;-72
2022/04/01 10:34:56;;;;;;;34.90;7.45;;;;;;;18.40;57.48;98238.94;5029644;28;20092;-71
2022/04/01 10:37:23;;;;;;;39.63;7.28;;;;;;;18.34;57.57;98253.59;5012775;28;20388;-71
2022/04/01 10:40:15;;;;;;;32.25;6.90;;;;;;;18.30;57.96;98251.91;5029615;28;20068;-71
2022/04/01 10:42:42;;;;;;;41.90;8.55;;;;;;;18.12;58.20;98260.03;5028844;28;20042;-72
2022/04/01 10:45:28;;;;;;;35.95;6.30;;;;;;;18.12;58.65;98275.25;5029579;28;20041;-71
2022/04/01 10:53:45;;;;;;;44.42;8.20;;;;;;;17.85;59.81;98278.13;5026917;28;20037;-71
2022/04/01 10:56:25;;;;;;;37.35;7.82;;;;;;;17.77;58.43;98276.28;5009619;28;20128;-71
2022/04/01 10:59:01;;;;;;;35.03;6.97;;;;;;;17.67;59.25;98265.22;5027863;28;20083;-71
2022/04/01 11:01:27;;;;;;;36.95;6.90;;;;;;;17.64;59.78;98278.06;5029325;28;20531;-71
2022/04/01 11:03:52;;;;;;;32.03;5.80;;;;;;;17.29;59.04;98234.19;5029495;28;20125;-71
2022/04/01 11:06:22;;;;;;;36.60;6.57;;;;;;;17.39;61.08;98285.13;5047027;28;20043;-71
2022/04/01 11:08:55;;;;;;;31.13;7.50;;;;;;;17.23;63.56;98294.75;5046469;28;20041;-71
2022/04/01 11:11:21;;;;;;;29.65;6.28;;;;;;;17.07;62.34;98299.03;5051983;28;20029;-70
2022/04/01 11:14:06;;;;;;;28.95;6.32;;;;;;;16.96;63.99;98293.31;5051601;28;20098;-72
2022/04/01 11:16:49;;;;;;;31.55;6.60;;;;;;;16.77;63.56;98306.94;5051769;28;20376;-71
2022/04/01 11:19:28;;;;;;;28.35;5.47;;;;;;;16.61;64.88;98301.34;5050901;28;20044;-72
2022/04/01 11:21:53;;;;;;;28.70;5.47;;;;;;;16.45;65.39;98329.47;5051586;28;20021;-71
2022/04/01 11:24:23;;;;;;;26.80;4.82;;;;;;;16.30;65.85;98341.38;5051401;28;20079;-71
2022/04/01 11:26:48;;;;;;;24.40;5.30;;;;;;;16.08;67.31;98340.44;5046791;28;20064;-72
2022/04/01 11:29:19;;;;;;;20.35;5.32;;;;;;;16.23;68.80;98400.25;5045989;28;20491;-72
2022/04/01 11:31:45;;;;;;;17.25;4.35;;;;;;;15.66;69.82;98331.31;5052112;28;20077;-71
2022/04/01 11:34:11;;;;;;;18.95;4.45;;;;;;;15.49;71.72;98326.72;5058601;28;20510;-71
2022/04/01 11:36:36;;;;;;;22.33;4.65;;;;;;;15.40;72.33;98342.63;5075844;28;20400;-72
2022/04/01 11:39:06;;;;;;;16.23;5.03;;;;;;;15.29;73.04;98342.09;5059187;28;20045;-71
2022/04/01 11:41:47;;;;;;;14.43;4.97;;;;;;;15.17;73.88;98343.75;5058263;28;20033;-72
2022/04/01 11:44:14;;;;;;;13.13;4.20;;;;;;;14.96;74.62;98338.97;5057708;28;20592;-73
2022/04/01 11:46:39;;;;;;;16.55;4.70;;;;;;;14.86;75.57;98344.53;5055267;28;20730;-72
2022/04/01 11:49:07;;;;;;;12.85;4.40;;;;;;;14.71;75.32;98351.00;5047589;28;20149;-73